createdAt,value
2022-10-03T00:00:28.458Z,20.02
2022-10-03T00:03:29.795Z,19.83
2022-10-03T00:06:02.409Z,19.10
2022-10-03T00:09:09.260Z,19.90
2022-10-03T00:11:41.424Z,18.02
2022-10-03T00:14:27.332Z,19.55
2022-10-03T00:17:12.565Z,19.30
2022-10-03T00:19:56.612Z,16.75
2022-10-03T00:22:32.442Z,16.67
2022-10-03T00:25:43.200Z,17.75
2022-10-03T00:28:18.411Z,16.58
2022-10-03T00:31:15.004Z,17.38
2022-10-03T00:34:21.397Z,18.83
2022-10-03T00:36:56.833Z,17.17
2022-10-03T00:39:29.657Z,17.48
2022-10-03T00:42:02.562Z,16.35
2022-10-03T00:44:47.025Z,17.92
2022-10-03T00:47:58.868Z,19.17
2022-10-03T00:50:41.268Z,18.42
2022-10-03T00:53:48.568Z,18.45
2022-10-03T00:56:34.314Z,18.65
2022-10-03T00:59:16.276Z,17.63
2022-10-03T01:01:46.777Z,17.77
2022-10-03T01:04:32.437Z,17.05
2022-10-03T01:07:39.700Z,16.80
2022-10-03T01:10:23.616Z,18.42
2022-10-03T01:13:14.314Z,18.08
2022-10-03T01:15:55.507Z,19.05
2022-10-03T01:18:45.005Z,17.50
2022-10-03T01:21:54.666Z,16.77
2022-10-03T01:24:36.826Z,17.27
2022-10-03T01:27:07.763Z,17.38
2022-10-03T01:30:03.769Z,18.92
2022-10-03T01:33:06.427Z,18.95
2022-10-03T01:35:53.773Z,17.77
2022-10-03T01:38:25.207Z,17.80
2022-10-03T01:41:03.205Z,18.02
2022-10-03T01:43:44.630Z,17.65
2022-10-03T01:46:22.878Z,17.58
2022-10-03T01:48:52.647Z,18.50
2022-10-03T01:51:28.638Z,16.80
2022-10-03T01:54:32.007Z,16.45
2022-10-03T01:57:10.882Z,16.33
2022-10-03T01:59:57.812Z,16.98
2022-10-03T02:02:47.761Z,16.73
2022-10-03T02:05:33.199Z,16.70
2022-10-03T02:08:07.625Z,15.55
2022-10-03T02:11:13.442Z,15.43
2022-10-03T02:13:59.117Z,15.02
2022-10-03T02:16:42.093Z,11.95
2022-10-03T02:19:36.646Z,13.13
2022-10-03T02:22:03.683Z,14.73
2022-10-03T02:25:02.888Z,14.43
2022-10-03T02:27:52.346Z,14.57
2022-10-03T02:30:22.102Z,14.88
2022-10-03T02:32:58.411Z,15.00
2022-10-03T02:35:34.950Z,14.27
2022-10-03T02:38:35.684Z,14.98
2022-10-03T02:41:18.803Z,15.07
2022-10-03T02:44:04.279Z,14.65
2022-10-03T02:47:14.549Z,14.35
2022-10-03T02:50:32.565Z,15.20
2022-10-03T02:53:37.217Z,16.52
2022-10-03T02:56:10.083Z,14.35
2022-10-03T02:59:24.040Z,15.57
2022-10-03T03:02:09.516Z,14.57
2022-10-03T03:05:13.167Z,12.43
2022-10-03T03:07:59.151Z,14.77
2022-10-03T03:10:28.809Z,13.95
2022-10-03T03:13:27.922Z,14.25
2022-10-03T03:16:16.478Z,15.25
2022-10-03T03:19:01.950Z,15.90
2022-10-03T03:21:38.903Z,15.68
2022-10-03T03:24:33.151Z,13.68
2022-10-03T03:27:41.151Z,13.43
2022-10-03T03:30:15.812Z,13.50
2022-10-03T03:33:01.307Z,13.32
2022-10-03T03:35:46.441Z,13.75
2022-10-03T03:38:31.995Z,13.30
2022-10-03T03:41:31.129Z,14.57
2022-10-03T03:44:36.010Z,14.82
2022-10-03T03:47:35.171Z,12.80
2022-10-03T03:50:07.926Z,14.65
2022-10-03T03:53:07.177Z,15.05
2022-10-03T03:56:05.841Z,14.25
2022-10-03T03:58:44.576Z,15.00
2022-10-03T04:01:36.443Z,14.20
2022-10-03T04:04:30.387Z,15.00
2022-10-03T04:07:41.437Z,14.40
2022-10-03T04:10:20.140Z,12.82
2022-10-03T04:13:07.810Z,13.50
2022-10-03T04:15:39.796Z,12.95
2022-10-03T04:18:47.032Z,15.48
2022-10-03T04:21:28.943Z,14.45
2022-10-03T04:24:23.629Z,13.02
2022-10-03T04:27:08.797Z,13.77
2022-10-03T04:29:47.993Z,13.98
2022-10-03T04:32:36.680Z,12.48
2022-10-03T04:36:02.402Z,12.63
2022-10-03T04:38:54.648Z,14.63
2022-10-03T04:41:49.736Z,15.32
2022-10-03T04:44:38.604Z,14.10
2022-10-03T04:47:28.734Z,14.80
2022-10-03T04:50:19.702Z,15.32
2022-10-03T04:53:12.611Z,13.75
2022-10-03T04:56:01.204Z,12.70
2022-10-03T04:58:43.341Z,11.23
2022-10-03T05:01:23.074Z,14.18
2022-10-03T05:04:09.629Z,15.40
2022-10-03T05:06:49.208Z,17.83
2022-10-03T05:09:24.950Z,16.77
2022-10-03T05:12:28.516Z,14.53
2022-10-03T05:15:17.050Z,16.05
2022-10-03T05:18:06.965Z,14.75
2022-10-03T05:20:57.926Z,15.68
2022-10-03T05:23:39.265Z,15.90
2022-10-03T05:26:44.959Z,14.65
2022-10-03T05:29:48.547Z,16.45
2022-10-03T05:32:30.644Z,17.08
2022-10-03T05:35:04.585Z,13.02
2022-10-03T05:37:47.466Z,14.18
2022-10-03T05:40:28.550Z,15.50
2022-10-03T05:43:22.939Z,15.88
2022-10-03T05:46:28.346Z,13.15
2022-10-03T05:49:16.931Z,12.68
2022-10-03T05:52:12.598Z,12.68
2022-10-03T05:55:01.433Z,12.93
2022-10-03T05:58:05.324Z,12.02
2022-10-03T06:00:51.316Z,12.23
2022-10-03T06:03:22.148Z,11.90
2022-10-03T06:06:22.748Z,12.13
2022-10-03T06:09:44.860Z,12.68
2022-10-03T06:12:24.381Z,12.57
2022-10-03T06:15:27.875Z,11.20
2022-10-03T06:18:15.970Z,11.23
2022-10-03T06:21:18.453Z,12.23
2022-10-03T06:24:01.212Z,12.67
2022-10-03T06:26:40.106Z,12.15
2022-10-03T06:29:37.902Z,11.68
2022-10-03T06:32:14.977Z,10.80
2022-10-03T06:35:03.293Z,10.63
2022-10-03T06:38:07.791Z,11.18
2022-10-03T06:40:55.213Z,10.20
2022-10-03T06:43:57.199Z,10.27
2022-10-03T06:46:30.931Z,10.68
2022-10-03T06:49:09.669Z,10.23
2022-10-03T06:52:17.131Z,9.98
2022-10-03T06:54:52.822Z,9.80
2022-10-03T06:57:50.681Z,9.43
2022-10-03T07:01:03.677Z,8.85
2022-10-03T07:04:06.742Z,8.75
2022-10-03T07:07:11.148Z,8.77
2022-10-03T07:10:01.158Z,8.40
2022-10-03T07:12:47.422Z,8.32
2022-10-03T07:15:38.064Z,9.13
2022-10-03T07:18:47.652Z,8.60
2022-10-03T07:21:31.178Z,8.00
2022-10-03T07:24:26.529Z,8.00
2022-10-03T07:27:27.454Z,8.10
2022-10-03T07:30:16.288Z,7.57
2022-10-03T07:33:20.784Z,7.38
2022-10-03T07:36:44.258Z,7.15
2022-10-03T07:39:32.808Z,6.70
2022-10-03T07:42:12.119Z,6.63
2022-10-03T07:45:04.107Z,6.97
2022-10-03T07:48:02.088Z,6.40
2022-10-03T07:50:43.987Z,6.80
2022-10-03T07:53:20.429Z,7.03
2022-10-03T07:56:12.122Z,7.32
2022-10-03T07:58:44.987Z,6.90
2022-10-03T08:01:42.690Z,7.00
2022-10-03T08:04:28.527Z,6.60
2022-10-03T08:07:10.221Z,6.22
2022-10-03T08:09:55.415Z,6.38
2022-10-03T08:12:33.676Z,6.65
2022-10-03T08:15:20.606Z,6.50
2022-10-03T08:18:24.852Z,6.30
2022-10-03T08:21:03.351Z,6.55
2022-10-03T08:23:50.498Z,7.10
2022-10-03T08:26:34.375Z,6.38
2022-10-03T08:29:23.753Z,6.72
2022-10-03T08:32:27.649Z,7.22
2022-10-03T08:34:57.377Z,7.30
2022-10-03T08:38:08.476Z,6.75
2022-10-03T08:40:59.666Z,7.30
2022-10-03T08:43:41.551Z,5.35
2022-10-03T08:46:29.098Z,5.78
2022-10-03T08:49:26.743Z,6.10
2022-10-03T08:52:18.475Z,5.35
2022-10-03T08:55:09.001Z,5.68
2022-10-03T08:57:44.783Z,5.13
2022-10-03T09:00:29.215Z,5.40
2022-10-03T09:03:43.997Z,5.57
2022-10-03T09:06:29.063Z,4.20
2022-10-03T09:09:04.927Z,4.72
2022-10-03T09:12:16.351Z,4.28
2022-10-03T09:15:03.157Z,4.30
2022-10-03T09:17:49.701Z,5.78
2022-10-03T09:20:50.347Z,4.88
2022-10-03T09:24:08.290Z,4.25
2022-10-03T09:26:38.204Z,5.03
2022-10-03T09:29:27.074Z,4.10
2022-10-03T09:32:12.632Z,4.25
2022-10-03T09:34:47.565Z,4.72
2022-10-03T09:37:17.417Z,4.18
2022-10-03T09:40:08.539Z,4.72
2022-10-03T09:42:56.728Z,5.10
2022-10-03T09:45:53.172Z,4.50
2022-10-03T09:48:37.184Z,4.13
2022-10-03T09:51:30.277Z,4.30
2022-10-03T09:54:18.677Z,4.07
2022-10-03T09:57:00.692Z,3.55
2022-10-03T09:59:44.518Z,4.20
2022-10-03T10:02:48.967Z,4.40
2022-10-03T10:05:48.082Z,4.35
2022-10-03T10:08:29.304Z,4.07
2022-10-03T10:11:14.338Z,3.97
2022-10-03T10:14:21.321Z,3.65
2022-10-03T10:17:26.285Z,3.50
2022-10-03T10:20:20.417Z,3.20
2022-10-03T10:23:21.310Z,3.40
2022-10-03T10:26:15.502Z,3.50
2022-10-03T10:28:51.521Z,3.58
2022-10-03T10:31:46.306Z,3.17
2022-10-03T10:34:32.208Z,2.90
2022-10-03T10:37:19.239Z,3.20
2022-10-03T10:40:36.125Z,3.15
2022-10-03T10:43:36.807Z,3.83
2022-10-03T10:46:25.345Z,3.70
2022-10-03T10:49:16.659Z,4.00
2022-10-03T10:52:11.858Z,3.92
2022-10-03T10:55:05.190Z,4.72
2022-10-03T10:57:40.536Z,4.72
2022-10-03T11:00:09.050Z,4.47
2022-10-03T11:03:09.923Z,4.80
2022-10-03T11:05:55.457Z,5.07
2022-10-03T11:08:45.822Z,4.32
2022-10-03T11:11:36.881Z,4.28
2022-10-03T11:14:18.490Z,3.88
2022-10-03T11:17:09.738Z,3.95
2022-10-03T11:20:14.258Z,3.63
2022-10-03T11:22:43.939Z,4.30
2022-10-03T11:25:40.474Z,4.00
2022-10-03T11:28:46.385Z,3.97
2022-10-03T11:31:35.170Z,4.50
2022-10-03T11:34:17.162Z,4.38
2022-10-03T11:37:09.445Z,4.68
2022-10-03T11:39:45.202Z,4.97
2022-10-03T11:42:37.571Z,5.22
2022-10-03T11:45:07.107Z,5.05
2022-10-03T11:47:50.014Z,5.10
2022-10-03T11:50:25.974Z,5.38
2022-10-03T11:52:55.581Z,5.40
2022-10-03T11:55:31.848Z,4.97
2022-10-03T11:58:49.509Z,5.38
2022-10-03T12:01:50.816Z,5.15
2022-10-03T12:04:40.626Z,6.25
2022-10-03T12:07:57.555Z,6.97
2022-10-03T12:10:39.039Z,7.32
2022-10-03T12:13:17.416Z,7.40
2022-10-03T12:15:54.396Z,7.80
2022-10-03T12:18:42.796Z,7.63
2022-10-03T12:21:21.635Z,8.25
2022-10-03T12:24:08.148Z,8.60
2022-10-03T12:26:54.474Z,8.32
2022-10-03T12:29:25.514Z,7.65
2022-10-03T12:32:25.731Z,7.50
2022-10-03T12:35:08.147Z,7.93
2022-10-03T12:38:08.951Z,7.78
2022-10-03T12:40:43.696Z,9.18
2022-10-03T12:43:36.369Z,9.05
2022-10-03T12:46:14.078Z,9.77
2022-10-03T12:49:05.228Z,9.30
2022-10-03T12:51:42.577Z,9.50
2022-10-03T12:54:30.695Z,8.85
2022-10-03T12:57:22.069Z,8.93
2022-10-03T13:00:07.054Z,8.93
2022-10-03T13:02:59.310Z,8.30
2022-10-03T13:05:56.238Z,8.35
2022-10-03T13:08:55.485Z,9.15
2022-10-03T13:11:32.557Z,8.75
2022-10-03T13:14:15.842Z,9.00
2022-10-03T13:17:05.796Z,8.63
2022-10-03T13:19:58.623Z,8.88
2022-10-03T13:22:28.389Z,9.95
2022-10-03T13:25:01.100Z,8.00
2022-10-03T13:27:29.218Z,8.50
2022-10-03T13:30:05.567Z,9.50
2022-10-03T13:32:38.189Z,9.55
2022-10-03T13:35:51.481Z,9.50
2022-10-03T13:38:43.838Z,9.25
2022-10-03T13:41:25.346Z,8.55
2022-10-03T13:44:10.795Z,9.07
2022-10-03T13:46:48.601Z,8.77
2022-10-03T13:49:45.366Z,9.68
2022-10-03T13:52:37.229Z,8.93
2022-10-03T13:55:45.607Z,9.77
2022-10-03T13:58:23.246Z,10.00
2022-10-03T14:01:21.670Z,9.73
2022-10-03T14:03:55.248Z,9.50
2022-10-03T14:06:37.996Z,8.43
2022-10-03T14:10:03.764Z,9.00
2022-10-03T14:12:56.050Z,10.00
2022-10-03T14:15:27.143Z,9.70
2022-10-03T14:18:05.951Z,8.93
2022-10-03T14:20:58.573Z,8.82
2022-10-03T14:23:48.171Z,9.93
2022-10-03T14:26:33.498Z,9.52
2022-10-03T14:29:12.970Z,8.13
2022-10-03T14:31:57.009Z,8.45
2022-10-03T14:34:33.321Z,9.20
2022-10-03T14:37:39.937Z,9.07
2022-10-03T14:40:28.026Z,8.60
2022-10-03T14:43:00.124Z,8.48
2022-10-03T14:45:38.309Z,8.60
2022-10-03T14:48:12.667Z,8.88
2022-10-03T14:50:41.923Z,8.43
2022-10-03T14:53:24.009Z,8.05
2022-10-03T14:56:03.776Z,8.60
2022-10-03T14:58:35.674Z,8.93
2022-10-03T15:01:13.113Z,8.70
2022-10-03T15:03:45.341Z,8.77
2022-10-03T15:06:12.099Z,9.13
2022-10-03T15:08:43.544Z,8.52
2022-10-03T15:11:15.098Z,9.00
2022-10-03T15:13:51.020Z,9.20
2022-10-03T15:16:21.528Z,9.77
2022-10-03T15:19:07.298Z,10.40
2022-10-03T15:21:35.406Z,10.68
2022-10-03T15:24:06.806Z,9.98
2022-10-03T15:26:36.459Z,10.70
2022-10-03T15:29:07.403Z,10.82
2022-10-03T15:31:36.434Z,9.40
2022-10-03T15:34:25.833Z,10.80
2022-10-03T15:36:58.190Z,13.88
2022-10-03T15:39:35.421Z,12.93
2022-10-03T15:42:06.220Z,14.73
2022-10-03T15:44:39.644Z,14.93
2022-10-03T15:47:12.856Z,16.08
2022-10-03T15:50:02.532Z,15.70
2022-10-03T15:53:34.457Z,18.80
2022-10-03T15:56:24.055Z,19.10
2022-10-03T15:58:57.187Z,19.35
2022-10-03T16:01:39.711Z,17.73
2022-10-03T16:04:25.677Z,19.65
2022-10-03T16:06:55.327Z,20.08
2022-10-03T16:09:22.023Z,19.10
2022-10-03T16:12:11.679Z,19.85
2022-10-03T16:14:42.160Z,22.48
2022-10-03T16:17:19.766Z,21.63
2022-10-03T16:19:56.793Z,21.73
2022-10-03T16:22:45.489Z,19.77
2022-10-03T16:25:25.137Z,21.65
2022-10-03T16:28:05.374Z,20.65
2022-10-03T16:30:41.760Z,23.70
2022-10-03T16:33:27.463Z,23.08
2022-10-03T16:36:09.321Z,23.02
2022-10-03T16:38:44.323Z,24.08
2022-10-03T16:41:31.818Z,23.88
2022-10-03T16:44:18.049Z,24.33
2022-10-03T16:46:46.374Z,22.60
2022-10-03T16:49:44.033Z,23.98
2022-10-03T16:52:14.819Z,23.50
2022-10-03T16:54:43.431Z,22.65
2022-10-03T16:57:19.190Z,23.10
2022-10-03T16:59:52.166Z,22.15
2022-10-03T17:02:24.458Z,22.95
2022-10-03T17:05:03.805Z,21.33
2022-10-03T17:07:40.543Z,23.15
2022-10-03T17:10:27.878Z,25.55
2022-10-03T17:13:03.392Z,24.83
2022-10-03T17:15:38.665Z,26.30
2022-10-03T17:18:16.976Z,24.30
2022-10-03T17:20:50.583Z,24.70
2022-10-03T17:23:24.209Z,24.23
2022-10-03T17:25:58.715Z,25.50
2022-10-03T17:28:55.023Z,25.73
2022-10-03T17:31:28.681Z,25.27
2022-10-03T17:34:17.042Z,25.33
2022-10-03T17:36:56.624Z,27.15
2022-10-03T17:39:50.659Z,26.10
2022-10-03T17:42:26.575Z,26.73
2022-10-03T17:45:06.796Z,26.90
2022-10-03T17:48:05.444Z,26.95
2022-10-03T17:50:44.746Z,25.02
2022-10-03T17:53:29.084Z,25.30
2022-10-03T17:56:04.767Z,25.52
2022-10-03T17:58:33.081Z,25.92
2022-10-03T18:01:10.245Z,28.50
2022-10-03T18:03:58.557Z,30.48
2022-10-03T18:06:44.156Z,28.70
2022-10-03T18:09:38.571Z,28.55
2022-10-03T18:12:31.073Z,28.40
2022-10-03T18:15:37.818Z,28.67
2022-10-03T18:18:34.337Z,26.55
2022-10-03T18:21:24.904Z,27.85
2022-10-03T18:23:55.053Z,29.30
2022-10-03T18:26:36.949Z,30.13
2022-10-03T18:29:22.426Z,27.73
2022-10-03T18:31:57.687Z,27.67
2022-10-03T18:34:34.560Z,25.90
2022-10-03T18:37:16.838Z,26.70
2022-10-03T18:39:47.657Z,27.95
2022-10-03T18:42:18.451Z,26.17
2022-10-03T18:44:46.339Z,25.25
2022-10-03T18:47:26.168Z,24.90
2022-10-03T18:50:20.900Z,25.52
2022-10-03T18:52:55.143Z,23.48
2022-10-03T18:55:36.698Z,25.17
2022-10-03T18:58:28.054Z,26.23
2022-10-03T19:01:24.511Z,25.98
2022-10-03T19:04:09.427Z,25.92
2022-10-03T19:06:45.132Z,25.17
2022-10-03T19:09:19.548Z,24.15
2022-10-03T19:12:10.029Z,25.38
2022-10-03T19:14:45.972Z,26.95
2022-10-03T19:17:32.573Z,28.13
2022-10-03T19:20:16.440Z,28.02
2022-10-03T19:23:23.011Z,28.90
2022-10-03T19:25:56.637Z,30.25
2022-10-03T19:28:31.875Z,25.17
2022-10-03T19:31:13.446Z,24.38
2022-10-03T19:33:48.989Z,27.98
2022-10-03T19:36:32.899Z,32.80
2022-10-03T19:39:00.925Z,32.60
2022-10-03T19:41:40.746Z,29.48
2022-10-03T19:44:14.136Z,30.52
2022-10-03T19:46:49.845Z,31.38
2022-10-03T19:49:31.264Z,27.27
2022-10-03T19:52:25.393Z,28.80
2022-10-03T19:55:29.112Z,27.23
2022-10-03T19:58:03.932Z,28.35
2022-10-03T20:00:39.317Z,25.75
2022-10-03T20:03:14.307Z,27.92
2022-10-03T20:05:56.133Z,24.67
2022-10-03T20:08:35.493Z,25.67
2022-10-03T20:11:21.032Z,28.63
2022-10-03T20:13:49.312Z,27.88
2022-10-03T20:16:20.594Z,26.33
2022-10-03T20:18:51.742Z,25.98
2022-10-03T20:21:23.688Z,26.35
2022-10-03T20:23:53.670Z,26.25
2022-10-03T20:26:33.465Z,24.30
2022-10-03T20:29:08.993Z,23.42
2022-10-03T20:31:36.857Z,24.70
2022-10-03T20:34:13.324Z,25.10
2022-10-03T20:36:46.530Z,25.90
2022-10-03T20:39:19.716Z,24.30
2022-10-03T20:42:04.070Z,23.98
2022-10-03T20:44:50.508Z,25.42
2022-10-03T20:47:44.157Z,25.58
2022-10-03T20:50:22.237Z,24.10
2022-10-03T20:52:52.695Z,26.38
2022-10-03T20:55:24.912Z,27.10
2022-10-03T20:58:00.054Z,26.50
2022-10-03T21:00:28.694Z,26.35
2022-10-03T21:03:07.896Z,21.30
2022-10-03T21:05:38.956Z,25.05
2022-10-03T21:08:14.163Z,23.38
2022-10-03T21:10:47.325Z,25.63
2022-10-03T21:13:20.210Z,24.67
2022-10-03T21:15:48.128Z,23.20
2022-10-03T21:18:25.102Z,22.58
2022-10-03T21:21:24.399Z,24.15
2022-10-03T21:24:06.762Z,25.10
2022-10-03T21:26:42.806Z,23.80
2022-10-03T21:29:23.777Z,24.48
2022-10-03T21:32:17.501Z,26.25
2022-10-03T21:35:10.847Z,22.95
2022-10-03T21:37:49.428Z,23.05
2022-10-03T21:40:48.096Z,23.33
2022-10-03T21:43:52.142Z,23.33
2022-10-03T21:46:37.899Z,24.83
2022-10-03T21:49:32.272Z,20.55
2022-10-03T21:52:26.436Z,22.15
2022-10-03T21:55:11.476Z,21.63
2022-10-03T21:57:38.325Z,22.95
2022-10-03T22:00:39.117Z,24.88
2022-10-03T22:03:21.314Z,21.48
2022-10-03T22:06:03.380Z,23.05
2022-10-03T22:08:34.078Z,24.67
2022-10-03T22:11:17.611Z,21.92
2022-10-03T22:14:01.147Z,24.88
2022-10-03T22:16:46.154Z,25.17
2022-10-03T22:19:12.861Z,22.75
2022-10-03T22:21:54.897Z,20.05
2022-10-03T22:24:51.046Z,22.52
2022-10-03T22:27:32.615Z,22.40
2022-10-03T22:30:12.285Z,22.42
2022-10-03T22:32:48.411Z,24.52
2022-10-03T22:35:21.312Z,24.10
2022-10-03T22:37:48.346Z,23.85
2022-10-03T22:40:15.376Z,25.60
2022-10-03T22:42:50.062Z,24.65
2022-10-03T22:45:18.083Z,23.35
2022-10-03T22:47:51.009Z,23.92
2022-10-03T22:50:23.640Z,25.85
2022-10-03T22:52:52.119Z,23.75
2022-10-03T22:55:22.418Z,23.50
2022-10-03T22:57:50.993Z,22.88
2022-10-03T23:00:27.298Z,21.73
2022-10-03T23:03:14.078Z,23.92
2022-10-03T23:05:56.014Z,25.42
2022-10-03T23:08:51.957Z,23.13
2022-10-03T23:11:24.436Z,23.15
2022-10-03T23:13:51.530Z,25.08
2022-10-03T23:16:44.287Z,24.35
2022-10-03T23:19:23.502Z,24.67
2022-10-03T23:21:53.025Z,22.65
2022-10-03T23:24:22.747Z,24.15
2022-10-03T23:27:22.369Z,23.42
2022-10-03T23:30:11.704Z,21.55
2022-10-03T23:32:47.524Z,21.33
2022-10-03T23:35:20.508Z,22.48
2022-10-03T23:37:49.166Z,21.42
2022-10-03T23:40:30.426Z,23.73
2022-10-03T23:43:05.016Z,25.73
2022-10-03T23:45:35.655Z,23.00
2022-10-03T23:48:14.587Z,24.27
2022-10-03T23:50:43.004Z,23.35
2022-10-03T23:53:38.776Z,23.13
2022-10-03T23:56:22.910Z,23.63
2022-10-03T23:59:07.803Z,25.58
